createdAt,value
2023-02-11T00:00:21.348Z,100733.94
2023-02-11T00:02:48.240Z,100754.34
2023-02-11T00:05:15.409Z,100750.97
2023-02-11T00:07:42.098Z,100753.47
2023-02-11T00:10:09.124Z,100749.94
2023-02-11T00:12:36.967Z,100752.47
2023-02-11T00:15:04.524Z,100756.78
2023-02-11T00:17:32.845Z,100756.00
2023-02-11T00:19:59.364Z,100757.66
2023-02-11T00:22:25.968Z,100750.97
2023-02-11T00:24:52.543Z,100750.97
2023-02-11T00:27:19.167Z,100751.84
2023-02-11T00:29:45.819Z,100742.28
2023-02-11T00:32:12.356Z,100736.59
2023-02-11T00:34:38.889Z,100739.84
2023-02-11T00:37:05.777Z,100751.22
2023-02-11T00:39:32.382Z,100743.66
2023-02-11T00:41:58.958Z,100741.84
2023-02-11T00:44:25.507Z,100735.06
2023-02-11T00:46:52.046Z,100734.28
2023-02-11T00:49:18.640Z,100728.91
2023-02-11T00:51:45.334Z,100728.03
2023-02-11T00:54:12.029Z,100731.78
2023-02-11T00:56:38.541Z,100722.97
2023-02-11T00:59:05.113Z,100726.72
2023-02-11T01:01:31.704Z,100726.53
2023-02-11T01:03:58.308Z,100720.72
2023-02-11T01:06:25.167Z,100721.47
2023-02-11T01:08:51.714Z,100712.03
2023-02-11T01:11:20.857Z,100731.78
2023-02-11T01:13:48.992Z,100722.47
2023-02-11T01:16:15.904Z,100727.41
2023-02-11T01:18:44.306Z,100729.91
2023-02-11T01:21:11.120Z,100726.53
2023-02-11T01:23:37.678Z,100731.78
2023-02-11T01:26:04.404Z,100730.03
2023-02-11T01:28:31.196Z,100724.97
2023-02-11T01:30:58.211Z,100724.72
2023-02-11T01:33:24.926Z,100720.47
2023-02-11T01:35:52.136Z,100719.69
2023-02-11T01:38:21.728Z,100722.09
2023-02-11T01:40:52.343Z,100723.84
2023-02-11T01:43:19.735Z,100724.72
2023-02-11T01:45:46.994Z,100709.41
2023-02-11T01:48:18.450Z,100703.09
2023-02-11T01:50:47.323Z,100707.78
2023-02-11T01:53:33.512Z,100705.78
2023-02-11T01:56:19.286Z,100703.53
2023-02-11T01:58:49.121Z,100700.16
2023-02-11T02:01:22.221Z,100696.13
2023-02-11T02:03:54.314Z,100693.16
2023-02-11T02:06:47.618Z,100690.91
2023-02-11T02:09:23.689Z,100680.97
2023-02-11T02:11:50.990Z,100685.00
2023-02-11T02:14:17.919Z,100684.13
2023-02-11T02:16:44.968Z,100689.41
2023-02-11T02:19:48.810Z,100692.31
2023-02-11T02:22:18.286Z,100695.09
2023-02-11T02:25:09.680Z,100693.97
2023-02-11T02:28:13.672Z,100694.72
2023-02-11T02:31:11.718Z,100688.41
2023-02-11T02:33:58.300Z,100685.91
2023-02-11T02:36:39.480Z,100674.84
2023-02-11T02:39:22.381Z,100691.31
2023-02-11T02:41:51.626Z,100692.97
2023-02-11T02:44:19.683Z,100687.44
2023-02-11T02:46:46.300Z,100678.59
2023-02-11T02:49:14.932Z,100686.63
2023-02-11T02:51:56.654Z,100690.16
2023-02-11T02:54:56.647Z,100687.03
2023-02-11T02:57:41.967Z,100691.66
2023-02-11T03:00:08.492Z,100689.50
2023-02-11T03:03:08.592Z,100683.97
2023-02-11T03:05:44.026Z,100681.44
2023-02-11T03:08:18.575Z,100667.34
2023-02-11T03:10:51.350Z,100666.47
2023-02-11T03:13:22.270Z,100667.09
2023-02-11T03:15:52.691Z,100661.97
2023-02-11T03:18:25.350Z,100662.59
2023-02-11T03:20:54.236Z,100664.22
2023-02-11T03:23:29.435Z,100670.91
2023-02-11T03:25:59.754Z,100665.88
2023-02-11T03:28:46.344Z,100658.81
2023-02-11T03:31:27.716Z,100659.59
2023-02-11T03:34:08.669Z,100654.66
2023-02-11T03:36:54.607Z,100646.13
2023-02-11T03:39:29.537Z,100651.16
2023-02-11T03:41:59.312Z,100645.88
2023-02-11T03:44:31.342Z,100646.38
2023-02-11T03:46:59.030Z,100640.84
2023-02-11T03:49:27.802Z,100644.38
2023-02-11T03:51:55.838Z,100638.09
2023-02-11T03:54:30.325Z,100640.34
2023-02-11T03:57:00.122Z,100641.25
2023-02-11T03:59:27.078Z,100641.66
2023-02-11T04:01:53.751Z,100636.09
2023-02-11T04:04:20.572Z,100628.78
2023-02-11T04:06:47.119Z,100631.19
2023-02-11T04:09:15.015Z,100627.53
2023-02-11T04:11:41.690Z,100615.31
2023-02-11T04:14:08.219Z,100609.03
2023-02-11T04:16:34.896Z,100597.34
2023-02-11T04:19:01.746Z,100598.22
2023-02-11T04:21:28.320Z,100603.25
2023-02-11T04:23:54.929Z,100598.09
2023-02-11T04:26:21.522Z,100592.97
2023-02-11T04:28:48.043Z,100584.13
2023-02-11T04:31:14.603Z,100585.28
2023-02-11T04:33:41.235Z,100583.63
2023-02-11T04:36:08.102Z,100580.25
2023-02-11T04:38:34.652Z,100578.75
2023-02-11T04:41:01.326Z,100577.22
2023-02-11T04:43:27.944Z,100563.28
2023-02-11T04:45:58.342Z,100566.81
2023-02-11T04:48:25.760Z,100574.75
2023-02-11T04:50:52.355Z,100575.72
2023-02-11T04:53:18.973Z,100575.09
2023-02-11T04:55:48.542Z,100571.97
2023-02-11T04:58:15.201Z,100570.19
2023-02-11T05:00:41.834Z,100572.59
2023-02-11T05:03:08.408Z,100569.31
2023-02-11T05:05:37.789Z,100571.22
2023-02-11T05:08:04.517Z,100571.47
2023-02-11T05:10:31.222Z,100565.78
2023-02-11T05:12:57.749Z,100566.03
2023-02-11T05:15:24.289Z,100558.50
2023-02-11T05:17:50.834Z,100547.66
2023-02-11T05:20:17.517Z,100553.97
2023-02-11T05:22:44.073Z,100542.38
2023-02-11T05:25:10.675Z,100540.53
2023-02-11T05:27:37.252Z,100545.16
2023-02-11T05:30:05.554Z,100548.78
2023-02-11T05:32:32.355Z,100550.03
2023-02-11T05:34:58.875Z,100530.56
2023-02-11T05:37:25.423Z,100532.94
2023-02-11T05:39:52.042Z,100534.69
2023-02-11T05:42:18.571Z,100536.69
2023-02-11T05:44:45.148Z,100521.47
2023-02-11T05:47:11.755Z,100530.63
2023-02-11T05:49:38.285Z,100515.75
2023-02-11T05:52:05.031Z,100495.63
2023-02-11T05:54:31.587Z,100506.41
2023-02-11T05:56:58.121Z,100510.41
2023-02-11T05:59:24.705Z,100506.38
2023-02-11T06:01:51.265Z,100488.75
2023-02-11T06:04:17.807Z,100489.97
2023-02-11T06:06:44.350Z,100498.13
2023-02-11T06:09:11.813Z,100496.88
2023-02-11T06:11:38.751Z,100488.13
2023-02-11T06:14:05.363Z,100484.53
2023-02-11T06:16:32.049Z,100475.56
2023-02-11T06:18:58.641Z,100474.41
2023-02-11T06:21:33.518Z,100467.09
2023-02-11T06:24:07.051Z,100467.53
2023-02-11T06:26:33.652Z,100466.25
2023-02-11T06:29:00.758Z,100456.63
2023-02-11T06:31:27.907Z,100450.06
2023-02-11T06:33:58.462Z,100455.88
2023-02-11T06:36:25.164Z,100455.56
2023-02-11T06:38:51.798Z,100448.25
2023-02-11T06:41:20.335Z,100458.13
2023-02-11T06:43:47.713Z,100458.91
2023-02-11T06:46:14.328Z,100455.97
2023-02-11T06:48:43.695Z,100446.09
2023-02-11T06:51:16.074Z,100452.38
2023-02-11T06:53:45.565Z,100453.88
2023-02-11T06:56:16.196Z,100447.09
2023-02-11T06:58:42.791Z,100449.84
2023-02-11T07:01:12.348Z,100449.84
2023-02-11T07:03:43.040Z,100452.38
2023-02-11T07:06:14.073Z,100451.59
2023-02-11T07:08:42.453Z,100455.09
2023-02-11T07:11:11.262Z,100440.19
2023-02-11T07:13:37.889Z,100441.41
2023-02-11T07:16:09.330Z,100438.53
2023-02-11T07:18:36.333Z,100446.88
2023-02-11T07:21:10.366Z,100431.72
2023-02-11T07:23:37.161Z,100440.06
2023-02-11T07:26:16.397Z,100439.31
2023-02-11T07:28:44.851Z,100441.19
2023-02-11T07:31:11.523Z,100432.19
2023-02-11T07:33:38.216Z,100435.69
2023-02-11T07:36:06.699Z,100427.13
2023-02-11T07:38:34.666Z,100422.50
2023-02-11T07:41:05.848Z,100412.72
2023-02-11T07:43:32.873Z,100403.41
2023-02-11T07:45:59.426Z,100391.31
2023-02-11T07:48:25.961Z,100382.97
2023-02-11T07:50:52.524Z,100378.16
2023-02-11T07:53:19.103Z,100379.56
2023-02-11T07:55:45.661Z,100373.72
2023-02-11T07:58:12.252Z,100367.16
2023-02-11T08:00:38.795Z,100366.25
2023-02-11T08:03:05.456Z,100368.50
2023-02-11T08:05:32.018Z,100372.59
2023-02-11T08:07:58.561Z,100363.59
2023-02-11T08:10:25.105Z,100360.50
2023-02-11T08:12:51.672Z,100359.81
2023-02-11T08:15:18.189Z,100348.59
2023-02-11T08:17:44.718Z,100358.94
2023-02-11T08:20:12.058Z,100356.41
2023-02-11T08:22:38.591Z,100349.69
2023-02-11T08:25:05.498Z,100355.63
2023-02-11T08:27:32.051Z,100342.03
2023-02-11T08:29:59.882Z,100345.94
2023-02-11T08:32:26.768Z,100340.97
2023-02-11T08:34:53.432Z,100343.94
2023-02-11T08:37:20.614Z,100349.19
2023-02-11T08:39:47.415Z,100341.22
2023-02-11T08:42:15.631Z,100335.28
2023-02-11T08:44:42.983Z,100333.47
2023-02-11T08:47:09.743Z,100328.16
2023-02-11T08:49:36.418Z,100332.84
2023-02-11T08:52:04.232Z,100325.47
2023-02-11T08:54:31.675Z,100319.91
2023-02-11T08:56:58.236Z,100320.22
2023-02-11T08:59:24.828Z,100321.69
2023-02-11T09:01:51.578Z,100321.47
2023-02-11T09:04:18.756Z,100325.03
2023-02-11T09:06:45.494Z,100316.38
2023-02-11T09:09:14.196Z,100318.53
2023-02-11T09:11:42.700Z,100306.78
2023-02-11T09:14:16.708Z,100291.34
2023-02-11T09:16:43.457Z,100276.25
2023-02-11T09:19:10.636Z,100294.44
2023-02-11T09:21:37.639Z,100287.44
2023-02-11T09:24:06.549Z,100291.03
2023-02-11T09:26:35.748Z,100288.03
2023-02-11T09:29:03.074Z,100282.78
2023-02-11T09:31:31.532Z,100278.50
2023-02-11T09:34:04.355Z,100265.06
2023-02-11T09:36:33.791Z,100270.13
2023-02-11T09:39:02.153Z,100249.41
2023-02-11T09:41:48.919Z,100248.63
2023-02-11T09:44:44.695Z,100242.50
2023-02-11T09:47:34.037Z,100237.94
2023-02-11T09:50:04.799Z,100238.88
2023-02-11T09:52:51.668Z,100232.34
2023-02-11T09:55:22.573Z,100221.75
2023-02-11T09:57:49.577Z,100220.97
2023-02-11T10:00:21.058Z,100220.84
2023-02-11T10:03:35.388Z,100200.72
2023-02-11T10:06:07.783Z,100204.00
2023-02-11T10:08:41.310Z,100212.66
2023-02-11T10:11:45.141Z,100197.78
2023-02-11T10:14:36.449Z,100190.19
2023-02-11T10:17:37.418Z,100186.94
2023-02-11T10:20:25.547Z,100171.56
2023-02-11T10:23:09.866Z,100173.88
2023-02-11T10:25:45.460Z,100169.31
2023-02-11T10:28:16.527Z,100157.31
2023-02-11T10:31:02.879Z,100167.41
2023-02-11T10:33:32.484Z,100163.41
2023-02-11T10:35:59.738Z,100143.94
2023-02-11T10:38:28.014Z,100163.09
2023-02-11T10:40:54.593Z,100151.03
2023-02-11T10:43:26.234Z,100143.72
2023-02-11T10:45:54.724Z,100149.22
2023-02-11T10:48:39.786Z,100132.91
2023-02-11T10:51:22.821Z,100127.34
2023-02-11T10:54:13.826Z,100122.16
2023-02-11T10:56:47.139Z,100127.50
2023-02-11T10:59:21.499Z,100112.66
2023-02-11T11:01:59.415Z,100119.69
2023-02-11T11:04:45.018Z,100108.63
2023-02-11T11:07:29.461Z,100103.91
2023-02-11T11:10:02.353Z,100092.13
2023-02-11T11:12:31.671Z,100090.63
2023-02-11T11:15:01.665Z,100079.56
2023-02-11T11:17:29.311Z,100067.78
2023-02-11T11:20:14.043Z,100072.69
2023-02-11T11:22:42.246Z,100052.94
2023-02-11T11:25:22.297Z,100046.13
2023-02-11T11:27:51.232Z,100054.97
2023-02-11T11:30:19.042Z,100042.13
2023-02-11T11:32:46.437Z,100043.69
2023-02-11T11:35:30.072Z,100026.81
2023-02-11T11:38:05.201Z,100017.97
2023-02-11T11:40:34.015Z,100015.59
2023-02-11T11:43:05.631Z,100011.84
2023-02-11T11:45:32.795Z,100003.41
2023-02-11T11:48:28.040Z,99995.50
2023-02-11T11:51:04.353Z,99993.69
2023-02-11T11:54:08.828Z,99987.91
2023-02-11T11:56:46.358Z,99984.13
2023-02-11T11:59:16.473Z,99974.31
2023-02-11T12:01:51.248Z,99962.84
2023-02-11T12:04:36.267Z,99956.47
2023-02-11T12:07:17.586Z,99952.97
2023-02-11T12:09:55.943Z,99940.47
2023-02-11T12:12:49.940Z,99928.00
2023-02-11T12:15:48.229Z,99921.50
2023-02-11T12:18:52.443Z,99911.88
2023-02-11T12:21:56.275Z,99914.09
2023-02-11T12:24:41.433Z,99907.31
2023-02-11T12:27:17.085Z,99903.94
2023-02-11T12:30:21.975Z,99894.28
2023-02-11T12:32:59.347Z,99885.56
2023-02-11T12:35:40.696Z,99876.34
2023-02-11T12:38:10.232Z,99882.06
2023-02-11T12:41:15.088Z,99876.50
2023-02-11T12:43:44.602Z,99870.53
2023-02-11T12:47:15.957Z,99858.13
2023-02-11T12:49:50.606Z,99861.28
2023-02-11T12:52:24.097Z,99858.66
2023-02-11T12:55:14.303Z,99855.72
2023-02-11T12:57:42.179Z,99839.03
2023-02-11T13:00:15.447Z,99842.28
2023-02-11T13:03:26.847Z,99833.84
2023-02-11T13:05:58.711Z,99831.50
2023-02-11T13:08:40.742Z,99820.66
2023-02-11T13:11:14.253Z,99810.47
2023-02-11T13:13:49.549Z,99794.78
2023-02-11T13:16:33.595Z,99783.25
2023-02-11T13:19:03.778Z,99780.25
2023-02-11T13:22:01.693Z,99784.50
2023-02-11T13:24:41.894Z,99783.13
2023-02-11T13:27:11.690Z,99793.16
2023-02-11T13:30:04.317Z,99775.28
2023-02-11T13:33:03.273Z,99772.47
2023-02-11T13:35:39.554Z,99787.69
2023-02-11T13:38:17.410Z,99787.16
2023-02-11T13:40:45.088Z,99773.28
2023-02-11T13:43:23.707Z,99785.91
2023-02-11T13:45:54.892Z,99784.53
2023-02-11T13:48:27.721Z,99785.69
2023-02-11T13:50:58.890Z,99784.06
2023-02-11T13:53:27.672Z,99787.34
2023-02-11T13:56:11.358Z,99772.44
2023-02-11T13:58:47.545Z,99782.53
2023-02-11T14:02:20.924Z,99782.31
2023-02-11T14:05:38.879Z,99793.94
2023-02-11T14:08:30.190Z,99779.75
2023-02-11T14:10:58.184Z,99770.44
2023-02-11T14:13:53.015Z,99753.94
2023-02-11T14:16:36.775Z,99755.63
2023-02-11T14:19:06.121Z,99743.75
2023-02-11T14:21:39.619Z,99752.94
2023-02-11T14:24:07.059Z,99728.75
2023-02-11T14:26:42.551Z,99735.84
2023-02-11T14:29:23.151Z,99718.59
2023-02-11T14:31:58.836Z,99713.06
2023-02-11T14:34:49.511Z,99708.63
2023-02-11T14:37:37.252Z,99703.09
2023-02-11T14:40:21.943Z,99692.47
2023-02-11T14:42:48.632Z,99696.34
2023-02-11T14:45:21.341Z,99688.19
2023-02-11T14:48:03.424Z,99692.38
2023-02-11T14:50:41.629Z,99698.94
2023-02-11T14:53:15.995Z,99690.19
2023-02-11T14:55:47.172Z,99668.00
2023-02-11T14:58:15.527Z,99665.06
2023-02-11T15:00:55.603Z,99672.28
2023-02-11T15:03:26.151Z,99666.75
2023-02-11T15:06:01.953Z,99671.63
2023-02-11T15:08:30.763Z,99678.34
2023-02-11T15:11:00.158Z,99690.19
2023-02-11T15:13:31.181Z,99669.72
2023-02-11T15:16:06.584Z,99670.16
2023-02-11T15:18:47.063Z,99660.97
2023-02-11T15:21:30.205Z,99659.81
2023-02-11T15:24:24.662Z,99656.34
2023-02-11T15:27:04.011Z,99658.78
2023-02-11T15:29:42.873Z,99679.78
2023-02-11T15:32:09.728Z,99666.97
2023-02-11T15:34:37.396Z,99663.50
2023-02-11T15:37:04.804Z,99660.97
2023-02-11T15:39:38.826Z,99659.38
2023-02-11T15:42:38.064Z,99653.56
2023-02-11T15:45:35.725Z,99647.00
2023-02-11T15:48:26.773Z,99661.47
2023-02-11T15:51:01.073Z,99653.09
2023-02-11T15:53:41.153Z,99658.31
2023-02-11T15:56:25.420Z,99648.22
2023-02-11T15:58:55.921Z,99661.72
2023-02-11T16:01:34.386Z,99634.47
2023-02-11T16:04:02.343Z,99640.63
2023-02-11T16:06:40.630Z,99634.78
2023-02-11T16:09:12.831Z,99628.81
2023-02-11T16:11:48.672Z,99628.00
2023-02-11T16:14:39.537Z,99631.31
2023-02-11T16:17:11.096Z,99627.84
2023-02-11T16:19:44.651Z,99631.31
2023-02-11T16:22:25.996Z,99620.88
2023-02-11T16:24:55.212Z,99626.97
2023-02-11T16:27:24.877Z,99622.97
2023-02-11T16:29:52.236Z,99620.44
2023-02-11T16:32:23.547Z,99627.13
2023-02-11T16:34:51.090Z,99611.13
2023-02-11T16:37:17.817Z,99612.69
2023-02-11T16:39:44.357Z,99605.88
2023-02-11T16:42:14.010Z,99606.84
2023-02-11T16:44:40.900Z,99593.09
2023-02-11T16:47:16.478Z,99594.06
2023-02-11T16:49:43.677Z,99594.22
2023-02-11T16:52:15.511Z,99595.84
2023-02-11T16:54:43.797Z,99607.72
2023-02-11T16:57:15.401Z,99600.03
2023-02-11T16:59:42.712Z,99596.66
2023-02-11T17:02:24.081Z,99582.97
2023-02-11T17:04:53.604Z,99590.72
2023-02-11T17:07:20.401Z,99577.31
2023-02-11T17:09:46.951Z,99563.75
2023-02-11T17:12:13.726Z,99560.41
2023-02-11T17:14:40.641Z,99562.00
2023-02-11T17:17:08.044Z,99559.56
2023-02-11T17:19:34.737Z,99567.06
2023-02-11T17:22:01.493Z,99545.25
2023-02-11T17:24:28.074Z,99562.00
2023-02-11T17:26:54.903Z,99564.66
2023-02-11T17:29:23.355Z,99563.75
2023-02-11T17:31:52.121Z,99546.06
2023-02-11T17:34:20.137Z,99558.69
2023-02-11T17:36:46.888Z,99543.53
2023-02-11T17:39:13.549Z,99556.78
2023-02-11T17:41:40.667Z,99553.63
2023-02-11T17:44:08.752Z,99546.06
2023-02-11T17:46:36.387Z,99547.78
2023-02-11T17:49:03.298Z,99532.47
2023-02-11T17:51:35.131Z,99542.56
2023-02-11T17:54:07.201Z,99543.53
2023-02-11T17:56:36.477Z,99535.78
2023-02-11T17:59:04.076Z,99530.72
2023-02-11T18:01:33.520Z,99526.47
2023-02-11T18:04:01.966Z,99526.47
2023-02-11T18:06:33.923Z,99534.97
2023-02-11T18:09:02.522Z,99516.19
2023-02-11T18:11:30.456Z,99530.56
2023-02-11T18:13:59.263Z,99522.09
2023-02-11T18:16:28.886Z,99513.03
2023-02-11T18:18:57.683Z,99515.56
2023-02-11T18:21:24.804Z,99509.72
2023-02-11T18:23:51.886Z,99514.53
2023-02-11T18:26:20.854Z,99510.44
2023-02-11T18:28:47.925Z,99507.13
2023-02-11T18:31:16.057Z,99504.53
2023-02-11T18:33:43.290Z,99506.44
2023-02-11T18:36:13.699Z,99507.13
2023-02-11T18:38:41.446Z,99511.47
2023-02-11T18:41:12.242Z,99500.47
2023-02-11T18:43:40.185Z,99505.69
2023-02-11T18:46:09.164Z,99496.47
2023-02-11T18:48:36.037Z,99509.03
2023-02-11T18:51:02.831Z,99503.72
2023-02-11T18:53:32.354Z,99519.69
2023-02-11T18:55:58.910Z,99506.72
2023-02-11T18:58:25.667Z,99502.91
2023-02-11T19:00:52.269Z,99490.97
2023-02-11T19:03:18.897Z,99496.81
2023-02-11T19:05:47.775Z,99485.75
2023-02-11T19:08:15.035Z,99487.53
2023-02-11T19:10:43.333Z,99489.94
2023-02-11T19:13:12.292Z,99479.84
2023-02-11T19:15:43.158Z,99482.28
2023-02-11T19:18:10.080Z,99476.56
2023-02-11T19:20:39.926Z,99475.81
2023-02-11T19:23:06.802Z,99473.22
2023-02-11T19:25:33.685Z,99471.75
2023-02-11T19:28:00.411Z,99470.94
2023-02-11T19:30:27.440Z,99461.72
2023-02-11T19:32:57.021Z,99478.59
2023-02-11T19:35:24.437Z,99454.22
2023-02-11T19:37:51.186Z,99451.59
2023-02-11T19:40:18.102Z,99460.16
2023-02-11T19:42:44.784Z,99454.75
2023-02-11T19:45:11.310Z,99457.47
2023-02-11T19:47:38.303Z,99461.72
2023-02-11T19:50:05.757Z,99480.97
2023-02-11T19:52:32.476Z,99459.97
2023-02-11T19:55:00.259Z,99464.78
2023-02-11T19:57:27.116Z,99457.28
2023-02-11T19:59:55.042Z,99447.13
2023-02-11T20:02:21.666Z,99458.78
2023-02-11T20:04:48.750Z,99450.16
2023-02-11T20:07:15.662Z,99439.91
2023-02-11T20:09:42.748Z,99444.00
2023-02-11T20:12:10.326Z,99438.00
2023-02-11T20:14:37.143Z,99433.69
2023-02-11T20:17:03.972Z,99451.34
2023-02-11T20:19:30.873Z,99429.31
2023-02-11T20:21:57.727Z,99431.59
2023-02-11T20:24:25.322Z,99435.69
2023-02-11T20:26:55.895Z,99422.13
2023-02-11T20:29:24.029Z,99429.22
2023-02-11T20:31:51.363Z,99429.47
2023-02-11T20:34:18.404Z,99408.75
2023-02-11T20:36:51.840Z,99429.28
2023-02-11T20:39:21.947Z,99421.53
2023-02-11T20:41:49.966Z,99421.53
2023-02-11T20:44:16.578Z,99426.59
2023-02-11T20:46:47.935Z,99413.03
2023-02-11T20:49:18.904Z,99426.53
2023-02-11T20:51:46.705Z,99415.56
2023-02-11T20:54:18.426Z,99413.97
2023-02-11T20:56:48.136Z,99417.28
2023-02-11T20:59:16.655Z,99415.56
2023-02-11T21:01:45.662Z,99418.16
2023-02-11T21:04:15.872Z,99418.22
2023-02-11T21:06:50.660Z,99429.22
2023-02-11T21:09:23.332Z,99420.06
2023-02-11T21:11:51.772Z,99422.75
2023-02-11T21:14:20.703Z,99413.53
2023-02-11T21:16:48.707Z,99424.47
2023-02-11T21:19:16.000Z,99418.50
2023-02-11T21:21:42.930Z,99426.16
2023-02-11T21:24:10.147Z,99414.38
2023-02-11T21:26:37.545Z,99420.22
2023-02-11T21:29:06.036Z,99410.84
2023-02-11T21:31:34.709Z,99417.59
2023-02-11T21:34:01.750Z,99408.94
2023-02-11T21:36:29.652Z,99411.69
2023-02-11T21:38:56.663Z,99412.72
2023-02-11T21:41:24.712Z,99392.38
2023-02-11T21:43:51.818Z,99399.94
2023-02-11T21:46:19.572Z,99402.63
2023-02-11T21:48:46.711Z,99401.78
2023-02-11T21:51:19.629Z,99407.78
2023-02-11T21:53:46.743Z,99407.78
2023-02-11T21:56:16.562Z,99407.84
2023-02-11T21:58:43.911Z,99416.38
2023-02-11T22:01:19.837Z,99407.16
2023-02-11T22:03:46.548Z,99396.19
2023-02-11T22:06:15.970Z,99402.09
2023-02-11T22:08:42.743Z,99412.28
2023-02-11T22:11:12.210Z,99406.38
2023-02-11T22:13:39.708Z,99399.81
2023-02-11T22:16:10.261Z,99397.19
2023-02-11T22:18:37.390Z,99409.22
2023-02-11T22:21:09.353Z,99398.22
2023-02-11T22:23:36.845Z,99404.06
2023-02-11T22:26:09.783Z,99405.03
2023-02-11T22:28:38.861Z,99404.19
2023-02-11T22:31:05.504Z,99409.38
2023-02-11T22:33:32.178Z,99397.28
2023-02-11T22:36:07.352Z,99415.28
2023-02-11T22:38:34.921Z,99406.94
2023-02-11T22:41:06.722Z,99408.66
2023-02-11T22:43:33.346Z,99419.56
2023-02-11T22:46:04.324Z,99412.69
2023-02-11T22:48:31.079Z,99416.16
2023-02-11T22:51:07.432Z,99414.66
2023-02-11T22:53:34.231Z,99418.59
2023-02-11T22:56:05.422Z,99421.34
2023-02-11T22:58:32.074Z,99421.34
2023-02-11T23:00:58.828Z,99414.50
2023-02-11T23:03:25.440Z,99423.88
2023-02-11T23:05:52.275Z,99416.06
2023-02-11T23:08:18.953Z,99433.97
2023-02-11T23:10:45.508Z,99432.31
2023-02-11T23:13:12.123Z,99418.75
2023-02-11T23:15:43.965Z,99427.28
2023-02-11T23:18:12.585Z,99415.38
2023-02-11T23:20:42.132Z,99422.22
2023-02-11T23:23:09.022Z,99425.72
2023-02-11T23:25:40.759Z,99417.03
2023-02-11T23:28:07.378Z,99429.03
2023-02-11T23:30:34.180Z,99424.84
2023-02-11T23:33:00.793Z,99428.94
2023-02-11T23:35:27.319Z,99428.16
2023-02-11T23:37:53.844Z,99432.19
2023-02-11T23:40:21.324Z,99436.44
2023-02-11T23:42:49.024Z,99433.91
2023-02-11T23:45:15.673Z,99432.19
2023-02-11T23:47:42.250Z,99442.41
2023-02-11T23:50:09.778Z,99444.81
2023-02-11T23:52:36.345Z,99452.53
2023-02-11T23:55:03.101Z,99457.56
2023-02-11T23:57:31.982Z,99455.66
2023-02-11T23:59:58.529Z,99456.81
